Hethersett, United Kingdom
Current Conditions -  °F | °C
As of 1:20 AM on Tuesday 25 Nov 2014 (Local Time) from EGSH Reporting Station
Moderate Fog Moderate Fog  
Wind Chill: 30°   Ceiling: Unl
Heat Index: 30°   Visibility: 0.15mi
Dew Point: 30°   Wind: 2mph
Humidity: 100%   Direction: 240°WSW
Pressure: 30.33"   Gusts: NA
Location:  52.6°N, 1.17°E
Report Text: EGSH 250120Z AUTO 24002KT 0250 FZFG FEW001/// M01/M01 Q1027
Loading
Personal Weather Stations






























Interactive Weather Map New forecast layout! Learn more

10-Day Weather Forecast

Advertisements
Track Severe Weather on mobile